sensor_id;sensor_type;location;lat;lon;timestamp;temperature;humidity
22852;DHT22;11592;45.460;9.240;2022-12-05T00:03:43;9.80;99.90
22852;DHT22;11592;45.460;9.240;2022-12-05T00:06:11;9.90;99.90
22852;DHT22;11592;45.460;9.240;2022-12-05T00:08:37;9.90;99.90
22852;DHT22;11592;45.460;9.240;2022-12-05T00:11:14;9.90;99.90
22852;DHT22;11592;45.460;9.240;2022-12-05T00:13:41;9.90;99.90
22852;DHT22;11592;45.460;9.240;2022-12-05T00:16:11;9.90;99.90
22852;DHT22;11592;45.460;9.240;2022-12-05T00:18:38;9.90;99.90
22852;DHT22;11592;45.460;9.240;2022-12-05T00:21:06;9.90;99.90
22852;DHT22;11592;45.460;9.240;2022-12-05T00:23:33;9.90;99.90
22852;DHT22;11592;45.460;9.240;2022-12-05T00:26:04;9.90;99.90
22852;DHT22;11592;45.460;9.240;2022-12-05T00:28:32;10.00;99.90
22852;DHT22;11592;45.460;9.240;2022-12-05T00:31:03;10.00;99.90
22852;DHT22;11592;45.460;9.240;2022-12-05T00:33:30;10.10;99.90
22852;DHT22;11592;45.460;9.240;2022-12-05T00:36:06;10.00;99.90
22852;DHT22;11592;45.460;9.240;2022-12-05T00:38:34;10.00;99.90
22852;DHT22;11592;45.460;9.240;2022-12-05T00:41:05;10.10;99.90
22852;DHT22;11592;45.460;9.240;2022-12-05T00:43:33;10.00;99.90
22852;DHT22;11592;45.460;9.240;2022-12-05T00:46:03;10.00;99.90
22852;DHT22;11592;45.460;9.240;2022-12-05T00:48:31;10.00;99.90
22852;DHT22;11592;45.460;9.240;2022-12-05T00:51:03;9.90;99.90
22852;DHT22;11592;45.460;9.240;2022-12-05T00:53:30;10.00;99.90
22852;DHT22;11592;45.460;9.240;2022-12-05T00:56:15;10.00;99.90
22852;DHT22;11592;45.460;9.240;2022-12-05T00:58:42;10.10;99.90
22852;DHT22;11592;45.460;9.240;2022-12-05T01:03:38;10.00;99.90
22852;DHT22;11592;45.460;9.240;2022-12-05T01:06:05;10.00;99.90
22852;DHT22;11592;45.460;9.240;2022-12-05T01:08:33;10.00;99.90
22852;DHT22;11592;45.460;9.240;2022-12-05T01:11:01;9.90;99.90
22852;DHT22;11592;45.460;9.240;2022-12-05T01:13:28;10.00;99.90
22852;DHT22;11592;45.460;9.240;2022-12-05T01:15:55;10.10;99.90
22852;DHT22;11592;45.460;9.240;2022-12-05T01:18:23;10.00;99.90
22852;DHT22;11592;45.460;9.240;2022-12-05T01:20:51;9.90;99.90
22852;DHT22;11592;45.460;9.240;2022-12-05T01:23:18;10.00;99.90
22852;DHT22;11592;45.460;9.240;2022-12-05T01:25:47;10.00;99.90
22852;DHT22;11592;45.460;9.240;2022-12-05T01:28:15;10.00;99.90
22852;DHT22;11592;45.460;9.240;2022-12-05T01:30:45;10.00;99.90
22852;DHT22;11592;45.460;9.240;2022-12-05T01:33:12;10.00;99.90
22852;DHT22;11592;45.460;9.240;2022-12-05T01:35:40;10.00;99.90
22852;DHT22;11592;45.460;9.240;2022-12-05T01:38:09;10.00;99.90
22852;DHT22;11592;45.460;9.240;2022-12-05T01:40:36;10.10;99.90
22852;DHT22;11592;45.460;9.240;2022-12-05T01:43:03;10.10;99.90
22852;DHT22;11592;45.460;9.240;2022-12-05T01:45:37;10.10;99.90
22852;DHT22;11592;45.460;9.240;2022-12-05T01:48:10;10.10;99.90
22852;DHT22;11592;45.460;9.240;2022-12-05T01:50:39;10.10;99.90
22852;DHT22;11592;45.460;9.240;2022-12-05T01:53:06;10.20;99.90
22852;DHT22;11592;45.460;9.240;2022-12-05T01:55:34;10.10;99.90
22852;DHT22;11592;45.460;9.240;2022-12-05T01:58:04;10.10;99.90
22852;DHT22;11592;45.460;9.240;2022-12-05T02:00:32;10.10;99.90
22852;DHT22;11592;45.460;9.240;2022-12-05T02:03:03;10.10;99.90
22852;DHT22;11592;45.460;9.240;2022-12-05T02:05:34;10.10;99.90
22852;DHT22;11592;45.460;9.240;2022-12-05T02:08:07;10.10;99.90
22852;DHT22;11592;45.460;9.240;2022-12-05T02:10:38;10.10;99.90
22852;DHT22;11592;45.460;9.240;2022-12-05T02:33:12;10.10;99.90
22852;DHT22;11592;45.460;9.240;2022-12-05T02:44:07;10.10;99.90
22852;DHT22;11592;45.460;9.240;2022-12-05T02:46:33;10.10;99.90
22852;DHT22;11592;45.460;9.240;2022-12-05T02:49:13;10.10;99.90
22852;DHT22;11592;45.460;9.240;2022-12-05T02:51:44;10.10;99.90
22852;DHT22;11592;45.460;9.240;2022-12-05T02:54:19;10.10;99.90
22852;DHT22;11592;45.460;9.240;2022-12-05T02:56:48;10.00;99.90
22852;DHT22;11592;45.460;9.240;2022-12-05T02:59:16;10.00;99.90
22852;DHT22;11592;45.460;9.240;2022-12-05T03:01:49;10.00;99.90
22852;DHT22;11592;45.460;9.240;2022-12-05T03:04:19;10.00;99.90
22852;DHT22;11592;45.460;9.240;2022-12-05T03:06:59;10.00;99.90
22852;DHT22;11592;45.460;9.240;2022-12-05T03:09:44;10.00;99.90
22852;DHT22;11592;45.460;9.240;2022-12-05T03:12:28;9.90;99.90
22852;DHT22;11592;45.460;9.240;2022-12-05T03:15:02;9.90;99.90
22852;DHT22;11592;45.460;9.240;2022-12-05T03:17:39;10.00;99.90
22852;DHT22;11592;45.460;9.240;2022-12-05T03:20:21;10.00;99.90
22852;DHT22;11592;45.460;9.240;2022-12-05T03:22:57;10.10;99.90
22852;DHT22;11592;45.460;9.240;2022-12-05T03:25:34;10.00;99.90
22852;DHT22;11592;45.460;9.240;2022-12-05T03:28:06;10.00;99.90
22852;DHT22;11592;45.460;9.240;2022-12-05T03:30:37;10.00;99.90
22852;DHT22;11592;45.460;9.240;2022-12-05T03:38:16;10.10;99.90
22852;DHT22;11592;45.460;9.240;2022-12-05T03:48:38;10.10;99.90
22852;DHT22;11592;45.460;9.240;2022-12-05T03:51:12;10.20;99.90
22852;DHT22;11592;45.460;9.240;2022-12-05T03:53:51;10.20;99.90
22852;DHT22;11592;45.460;9.240;2022-12-05T03:56:34;10.10;99.90
22852;DHT22;11592;45.460;9.240;2022-12-05T04:01:53;10.10;99.90
22852;DHT22;11592;45.460;9.240;2022-12-05T04:04:31;10.00;99.90
22852;DHT22;11592;45.460;9.240;2022-12-05T04:07:03;10.10;99.90
22852;DHT22;11592;45.460;9.240;2022-12-05T04:09:36;10.10;99.90
22852;DHT22;11592;45.460;9.240;2022-12-05T04:12:10;10.10;99.90
22852;DHT22;11592;45.460;9.240;2022-12-05T04:14:43;10.00;99.90
22852;DHT22;11592;45.460;9.240;2022-12-05T04:20:08;10.10;99.90
22852;DHT22;11592;45.460;9.240;2022-12-05T04:22:55;10.10;99.90
22852;DHT22;11592;45.460;9.240;2022-12-05T04:25:24;10.10;99.90
22852;DHT22;11592;45.460;9.240;2022-12-05T04:28:27;10.10;99.90
22852;DHT22;11592;45.460;9.240;2022-12-05T04:31:08;10.10;99.90
22852;DHT22;11592;45.460;9.240;2022-12-05T04:36:23;10.10;99.90
22852;DHT22;11592;45.460;9.240;2022-12-05T04:39:08;10.10;99.90
22852;DHT22;11592;45.460;9.240;2022-12-05T04:41:52;10.10;99.90
22852;DHT22;11592;45.460;9.240;2022-12-05T04:44:29;10.20;99.90
22852;DHT22;11592;45.460;9.240;2022-12-05T04:47:00;10.20;99.90
22852;DHT22;11592;45.460;9.240;2022-12-05T04:49:30;10.20;99.90
22852;DHT22;11592;45.460;9.240;2022-12-05T04:52:02;10.00;99.90
22852;DHT22;11592;45.460;9.240;2022-12-05T04:54:41;10.00;99.90
22852;DHT22;11592;45.460;9.240;2022-12-05T04:59:49;10.00;99.90
22852;DHT22;11592;45.460;9.240;2022-12-05T05:02:20;9.90;99.90
22852;DHT22;11592;45.460;9.240;2022-12-05T05:04:52;10.00;99.90
22852;DHT22;11592;45.460;9.240;2022-12-05T05:07:20;10.00;99.90
22852;DHT22;11592;45.460;9.240;2022-12-05T05:09:47;10.10;99.90
22852;DHT22;11592;45.460;9.240;2022-12-05T05:12:14;10.10;99.90
22852;DHT22;11592;45.460;9.240;2022-12-05T05:14:44;10.20;99.90
22852;DHT22;11592;45.460;9.240;2022-12-05T05:17:11;10.20;99.90
22852;DHT22;11592;45.460;9.240;2022-12-05T05:19:38;10.20;99.90
22852;DHT22;11592;45.460;9.240;2022-12-05T05:22:05;10.20;99.90
22852;DHT22;11592;45.460;9.240;2022-12-05T05:24:31;10.20;99.90
22852;DHT22;11592;45.460;9.240;2022-12-05T05:26:58;10.20;99.90
22852;DHT22;11592;45.460;9.240;2022-12-05T05:29:25;10.10;99.90
22852;DHT22;11592;45.460;9.240;2022-12-05T05:31:52;10.20;99.90
22852;DHT22;11592;45.460;9.240;2022-12-05T05:34:18;10.20;99.90
22852;DHT22;11592;45.460;9.240;2022-12-05T05:36:50;10.10;99.90
22852;DHT22;11592;45.460;9.240;2022-12-05T05:39:18;10.20;99.90
22852;DHT22;11592;45.460;9.240;2022-12-05T05:41:45;10.20;99.90
22852;DHT22;11592;45.460;9.240;2022-12-05T05:44:12;10.20;99.90
22852;DHT22;11592;45.460;9.240;2022-12-05T05:46:38;10.20;99.90
22852;DHT22;11592;45.460;9.240;2022-12-05T05:49:05;10.00;99.90
22852;DHT22;11592;45.460;9.240;2022-12-05T05:51:32;10.10;99.90
22852;DHT22;11592;45.460;9.240;2022-12-05T05:53:59;10.20;99.90
22852;DHT22;11592;45.460;9.240;2022-12-05T05:56:27;10.30;99.90
22852;DHT22;11592;45.460;9.240;2022-12-05T05:58:56;10.20;99.90
22852;DHT22;11592;45.460;9.240;2022-12-05T06:01:23;10.30;99.90
22852;DHT22;11592;45.460;9.240;2022-12-05T06:03:50;10.20;99.90
22852;DHT22;11592;45.460;9.240;2022-12-05T06:06:18;10.20;99.90
22852;DHT22;11592;45.460;9.240;2022-12-05T06:08:45;10.30;99.90
22852;DHT22;11592;45.460;9.240;2022-12-05T06:11:19;10.20;99.90
22852;DHT22;11592;45.460;9.240;2022-12-05T06:13:52;10.30;99.90
22852;DHT22;11592;45.460;9.240;2022-12-05T06:16:19;10.30;99.90
22852;DHT22;11592;45.460;9.240;2022-12-05T06:18:47;10.20;99.90
22852;DHT22;11592;45.460;9.240;2022-12-05T06:21:15;10.10;99.90
22852;DHT22;11592;45.460;9.240;2022-12-05T06:23:42;10.00;99.90
22852;DHT22;11592;45.460;9.240;2022-12-05T06:26:17;9.90;99.90
22852;DHT22;11592;45.460;9.240;2022-12-05T06:28:45;9.90;99.90
22852;DHT22;11592;45.460;9.240;2022-12-05T06:31:18;9.80;99.90
22852;DHT22;11592;45.460;9.240;2022-12-05T06:33:46;9.90;99.90
22852;DHT22;11592;45.460;9.240;2022-12-05T06:36:16;9.90;99.90
22852;DHT22;11592;45.460;9.240;2022-12-05T06:38:43;9.70;99.90
22852;DHT22;11592;45.460;9.240;2022-12-05T06:41:14;9.70;99.90
22852;DHT22;11592;45.460;9.240;2022-12-05T06:43:42;9.80;99.90
22852;DHT22;11592;45.460;9.240;2022-12-05T06:46:10;9.90;99.90
22852;DHT22;11592;45.460;9.240;2022-12-05T06:48:37;10.00;99.90
22852;DHT22;11592;45.460;9.240;2022-12-05T06:51:08;9.90;99.90
22852;DHT22;11592;45.460;9.240;2022-12-05T06:53:36;10.00;99.90
22852;DHT22;11592;45.460;9.240;2022-12-05T06:56:05;9.90;99.90
22852;DHT22;11592;45.460;9.240;2022-12-05T06:58:33;9.80;99.90
22852;DHT22;11592;45.460;9.240;2022-12-05T07:00:59;9.90;99.90
22852;DHT22;11592;45.460;9.240;2022-12-05T07:03:47;10.00;99.90
22852;DHT22;11592;45.460;9.240;2022-12-05T07:06:15;9.90;99.90
22852;DHT22;11592;45.460;9.240;2022-12-05T07:08:42;9.90;99.90
22852;DHT22;11592;45.460;9.240;2022-12-05T07:11:09;9.70;99.90
22852;DHT22;11592;45.460;9.240;2022-12-05T07:13:36;9.70;99.90
22852;DHT22;11592;45.460;9.240;2022-12-05T07:16:02;9.80;99.90
22852;DHT22;11592;45.460;9.240;2022-12-05T07:18:34;9.70;99.90
22852;DHT22;11592;45.460;9.240;2022-12-05T07:21:06;9.80;99.90
22852;DHT22;11592;45.460;9.240;2022-12-05T07:23:38;9.80;99.90
22852;DHT22;11592;45.460;9.240;2022-12-05T07:26:07;9.90;99.90
22852;DHT22;11592;45.460;9.240;2022-12-05T07:28:34;9.90;99.90
22852;DHT22;11592;45.460;9.240;2022-12-05T07:31:06;9.80;99.90
22852;DHT22;11592;45.460;9.240;2022-12-05T07:33:33;9.70;99.90
22852;DHT22;11592;45.460;9.240;2022-12-05T07:36:15;9.70;99.90
22852;DHT22;11592;45.460;9.240;2022-12-05T07:38:42;9.70;99.90
22852;DHT22;11592;45.460;9.240;2022-12-05T07:41:20;9.70;99.90
22852;DHT22;11592;45.460;9.240;2022-12-05T07:43:50;9.80;99.90
22852;DHT22;11592;45.460;9.240;2022-12-05T07:46:17;9.80;99.90
22852;DHT22;11592;45.460;9.240;2022-12-05T07:48:45;9.70;99.90
22852;DHT22;11592;45.460;9.240;2022-12-05T07:51:12;9.70;99.90
22852;DHT22;11592;45.460;9.240;2022-12-05T07:53:40;9.60;99.90
22852;DHT22;11592;45.460;9.240;2022-12-05T07:56:12;9.50;99.90
22852;DHT22;11592;45.460;9.240;2022-12-05T07:58:47;9.40;99.90
22852;DHT22;11592;45.460;9.240;2022-12-05T08:01:15;9.50;99.90
22852;DHT22;11592;45.460;9.240;2022-12-05T08:03:42;9.40;99.90
22852;DHT22;11592;45.460;9.240;2022-12-05T08:06:12;9.50;99.90
22852;DHT22;11592;45.460;9.240;2022-12-05T08:08:39;9.60;99.90
22852;DHT22;11592;45.460;9.240;2022-12-05T08:11:08;9.70;99.90
22852;DHT22;11592;45.460;9.240;2022-12-05T08:13:36;9.70;99.90
22852;DHT22;11592;45.460;9.240;2022-12-05T08:16:06;9.60;99.90
22852;DHT22;11592;45.460;9.240;2022-12-05T08:18:33;9.60;99.90
22852;DHT22;11592;45.460;9.240;2022-12-05T08:21:01;9.50;99.90
22852;DHT22;11592;45.460;9.240;2022-12-05T08:23:29;9.50;99.90
22852;DHT22;11592;45.460;9.240;2022-12-05T08:26:24;9.50;99.90
22852;DHT22;11592;45.460;9.240;2022-12-05T08:28:53;9.50;99.90
22852;DHT22;11592;45.460;9.240;2022-12-05T08:31:22;9.60;99.90
22852;DHT22;11592;45.460;9.240;2022-12-05T08:33:51;9.60;99.90
22852;DHT22;11592;45.460;9.240;2022-12-05T08:36:24;9.50;99.90
22852;DHT22;11592;45.460;9.240;2022-12-05T08:38:56;9.50;99.90
22852;DHT22;11592;45.460;9.240;2022-12-05T08:41:23;9.70;99.90
22852;DHT22;11592;45.460;9.240;2022-12-05T08:43:55;9.60;99.90
22852;DHT22;11592;45.460;9.240;2022-12-05T08:46:22;9.60;99.90
22852;DHT22;11592;45.460;9.240;2022-12-05T08:48:49;9.50;99.90
22852;DHT22;11592;45.460;9.240;2022-12-05T08:51:15;9.40;99.90
22852;DHT22;11592;45.460;9.240;2022-12-05T08:53:42;9.30;99.90
22852;DHT22;11592;45.460;9.240;2022-12-05T08:56:12;9.20;99.90
22852;DHT22;11592;45.460;9.240;2022-12-05T08:58:40;9.20;99.90
22852;DHT22;11592;45.460;9.240;2022-12-05T09:01:20;9.10;99.90
22852;DHT22;11592;45.460;9.240;2022-12-05T09:03:47;9.00;99.90
22852;DHT22;11592;45.460;9.240;2022-12-05T09:06:20;9.00;99.90
22852;DHT22;11592;45.460;9.240;2022-12-05T09:08:53;9.10;99.90
22852;DHT22;11592;45.460;9.240;2022-12-05T09:11:22;9.30;99.90
22852;DHT22;11592;45.460;9.240;2022-12-05T09:13:51;9.30;99.90
22852;DHT22;11592;45.460;9.240;2022-12-05T09:16:23;9.20;99.90
22852;DHT22;11592;45.460;9.240;2022-12-05T09:18:51;9.30;99.90
22852;DHT22;11592;45.460;9.240;2022-12-05T09:21:21;9.20;99.90
22852;DHT22;11592;45.460;9.240;2022-12-05T09:23:49;9.30;99.90
22852;DHT22;11592;45.460;9.240;2022-12-05T09:26:21;9.40;99.90
22852;DHT22;11592;45.460;9.240;2022-12-05T09:28:49;9.60;99.90
22852;DHT22;11592;45.460;9.240;2022-12-05T09:31:22;9.60;99.90
22852;DHT22;11592;45.460;9.240;2022-12-05T09:33:51;9.60;99.90
22852;DHT22;11592;45.460;9.240;2022-12-05T09:36:23;9.80;99.90
22852;DHT22;11592;45.460;9.240;2022-12-05T09:38:50;10.00;99.90
22852;DHT22;11592;45.460;9.240;2022-12-05T09:49:49;9.80;99.90
22852;DHT22;11592;45.460;9.240;2022-12-05T09:52:27;9.80;99.90
22852;DHT22;11592;45.460;9.240;2022-12-05T09:54:57;9.80;99.90
22852;DHT22;11592;45.460;9.240;2022-12-05T09:57:34;9.90;99.90
22852;DHT22;11592;45.460;9.240;2022-12-05T10:00:05;9.90;99.90
22852;DHT22;11592;45.460;9.240;2022-12-05T10:02:54;9.80;99.90
22852;DHT22;11592;45.460;9.240;2022-12-05T10:05:45;9.80;99.90
22852;DHT22;11592;45.460;9.240;2022-12-05T10:11:22;9.80;99.90
22852;DHT22;11592;45.460;9.240;2022-12-05T10:17:07;9.70;99.90
22852;DHT22;11592;45.460;9.240;2022-12-05T10:19:42;9.80;99.90
22852;DHT22;11592;45.460;9.240;2022-12-05T10:22:21;9.90;99.90
22852;DHT22;11592;45.460;9.240;2022-12-05T10:24:54;9.80;99.90
22852;DHT22;11592;45.460;9.240;2022-12-05T10:27:45;10.00;99.90
22852;DHT22;11592;45.460;9.240;2022-12-05T10:30:22;10.10;99.90
22852;DHT22;11592;45.460;9.240;2022-12-05T10:35:33;10.00;99.90
22852;DHT22;11592;45.460;9.240;2022-12-05T10:38:08;10.00;99.90
22852;DHT22;11592;45.460;9.240;2022-12-05T10:40:39;10.00;99.90
22852;DHT22;11592;45.460;9.240;2022-12-05T10:43:07;9.90;99.90
22852;DHT22;11592;45.460;9.240;2022-12-05T10:45:41;10.00;99.90
22852;DHT22;11592;45.460;9.240;2022-12-05T10:48:11;9.90;99.90
22852;DHT22;11592;45.460;9.240;2022-12-05T10:50:38;9.90;99.90
22852;DHT22;11592;45.460;9.240;2022-12-05T10:53:05;10.10;99.90
22852;DHT22;11592;45.460;9.240;2022-12-05T10:55:40;10.20;99.90
22852;DHT22;11592;45.460;9.240;2022-12-05T10:58:28;10.40;99.90
22852;DHT22;11592;45.460;9.240;2022-12-05T11:00:57;10.40;99.90
22852;DHT22;11592;45.460;9.240;2022-12-05T11:03:30;10.40;99.90
22852;DHT22;11592;45.460;9.240;2022-12-05T11:06:13;10.40;99.90
22852;DHT22;11592;45.460;9.240;2022-12-05T11:08:40;10.40;99.90
22852;DHT22;11592;45.460;9.240;2022-12-05T11:11:29;10.40;99.90
22852;DHT22;11592;45.460;9.240;2022-12-05T11:14:19;10.20;99.90
22852;DHT22;11592;45.460;9.240;2022-12-05T11:16:55;10.10;99.90
22852;DHT22;11592;45.460;9.240;2022-12-05T11:19:31;10.10;99.90
22852;DHT22;11592;45.460;9.240;2022-12-05T11:21:59;10.10;99.90
22852;DHT22;11592;45.460;9.240;2022-12-05T11:24:34;10.30;99.90
22852;DHT22;11592;45.460;9.240;2022-12-05T11:32:48;10.50;99.90
22852;DHT22;11592;45.460;9.240;2022-12-05T11:38:00;10.70;99.90
22852;DHT22;11592;45.460;9.240;2022-12-05T11:43:12;10.80;99.90
22852;DHT22;11592;45.460;9.240;2022-12-05T11:45:54;10.90;99.90
22852;DHT22;11592;45.460;9.240;2022-12-05T11:56:53;11.00;99.90
22852;DHT22;11592;45.460;9.240;2022-12-05T12:04:59;11.00;99.90
22852;DHT22;11592;45.460;9.240;2022-12-05T12:07:48;10.90;99.90
22852;DHT22;11592;45.460;9.240;2022-12-05T12:13:17;10.90;99.90
22852;DHT22;11592;45.460;9.240;2022-12-05T12:15:53;10.80;99.90
22852;DHT22;11592;45.460;9.240;2022-12-05T12:32:39;10.90;99.90
22852;DHT22;11592;45.460;9.240;2022-12-05T12:46:58;11.00;99.90
22852;DHT22;11592;45.460;9.240;2022-12-05T12:52:13;11.00;99.90
22852;DHT22;11592;45.460;9.240;2022-12-05T12:54:48;11.00;99.90
22852;DHT22;11592;45.460;9.240;2022-12-05T13:02:51;11.00;99.90
22852;DHT22;11592;45.460;9.240;2022-12-05T13:08:24;11.00;99.90
22852;DHT22;11592;45.460;9.240;2022-12-05T13:10:53;11.00;99.90
22852;DHT22;11592;45.460;9.240;2022-12-05T13:13:51;11.10;99.90
22852;DHT22;11592;45.460;9.240;2022-12-05T13:16:42;10.90;99.90
22852;DHT22;11592;45.460;9.240;2022-12-05T13:19:37;11.00;99.90
22852;DHT22;11592;45.460;9.240;2022-12-05T13:22:07;10.90;99.90
22852;DHT22;11592;45.460;9.240;2022-12-05T13:24:34;11.00;99.90
22852;DHT22;11592;45.460;9.240;2022-12-05T13:27:05;11.00;99.90
22852;DHT22;11592;45.460;9.240;2022-12-05T13:29:40;11.00;99.90
22852;DHT22;11592;45.460;9.240;2022-12-05T13:35:19;11.00;99.90
22852;DHT22;11592;45.460;9.240;2022-12-05T13:37:46;11.10;99.90
22852;DHT22;11592;45.460;9.240;2022-12-05T13:40:40;11.10;99.90
22852;DHT22;11592;45.460;9.240;2022-12-05T13:43:41;11.10;99.90
22852;DHT22;11592;45.460;9.240;2022-12-05T13:46:45;11.00;99.90
22852;DHT22;11592;45.460;9.240;2022-12-05T13:50:12;11.00;99.90
22852;DHT22;11592;45.460;9.240;2022-12-05T13:52:45;11.00;99.90
22852;DHT22;11592;45.460;9.240;2022-12-05T13:55:27;11.00;99.90
22852;DHT22;11592;45.460;9.240;2022-12-05T13:58:32;11.00;99.90
22852;DHT22;11592;45.460;9.240;2022-12-05T14:00:50;11.00;99.90
22852;DHT22;11592;45.460;9.240;2022-12-05T14:06:05;11.00;99.90
22852;DHT22;11592;45.460;9.240;2022-12-05T14:11:07;11.00;99.90
22852;DHT22;11592;45.460;9.240;2022-12-05T14:18:54;10.90;99.90
22852;DHT22;11592;45.460;9.240;2022-12-05T14:24:21;10.90;99.90
22852;DHT22;11592;45.460;9.240;2022-12-05T14:32:38;10.90;99.90
22852;DHT22;11592;45.460;9.240;2022-12-05T14:35:40;10.80;99.90
22852;DHT22;11592;45.460;9.240;2022-12-05T14:38:05;10.80;99.90
22852;DHT22;11592;45.460;9.240;2022-12-05T14:40:38;10.70;99.90
22852;DHT22;11592;45.460;9.240;2022-12-05T14:43:36;10.60;99.90
22852;DHT22;11592;45.460;9.240;2022-12-05T14:46:07;10.70;99.90
22852;DHT22;11592;45.460;9.240;2022-12-05T14:48:41;10.80;99.90
22852;DHT22;11592;45.460;9.240;2022-12-05T14:54:07;10.90;99.90
22852;DHT22;11592;45.460;9.240;2022-12-05T14:57:03;11.00;99.90
22852;DHT22;11592;45.460;9.240;2022-12-05T14:59:59;11.00;99.90
22852;DHT22;11592;45.460;9.240;2022-12-05T15:02:38;11.00;99.90
22852;DHT22;11592;45.460;9.240;2022-12-05T15:07:46;10.90;99.90
22852;DHT22;11592;45.460;9.240;2022-12-05T15:10:27;10.90;99.90
22852;DHT22;11592;45.460;9.240;2022-12-05T15:13:09;10.90;99.90
22852;DHT22;11592;45.460;9.240;2022-12-05T15:16:13;10.80;99.90
22852;DHT22;11592;45.460;9.240;2022-12-05T15:18:48;10.90;99.90
22852;DHT22;11592;45.460;9.240;2022-12-05T15:24:00;10.90;99.90
22852;DHT22;11592;45.460;9.240;2022-12-05T15:26:46;10.90;99.90
22852;DHT22;11592;45.460;9.240;2022-12-05T15:31:55;10.90;99.90
22852;DHT22;11592;45.460;9.240;2022-12-05T15:50:40;10.90;99.90
22852;DHT22;11592;45.460;9.240;2022-12-05T15:53:30;10.90;99.90
22852;DHT22;11592;45.460;9.240;2022-12-05T15:56:04;10.90;99.90
22852;DHT22;11592;45.460;9.240;2022-12-05T15:58:47;10.80;99.90
22852;DHT22;11592;45.460;9.240;2022-12-05T16:04:14;10.80;99.90
22852;DHT22;11592;45.460;9.240;2022-12-05T16:09:21;10.90;99.90
22852;DHT22;11592;45.460;9.240;2022-12-05T16:11:59;10.80;99.90
22852;DHT22;11592;45.460;9.240;2022-12-05T16:14:38;10.80;99.90
22852;DHT22;11592;45.460;9.240;2022-12-05T16:17:39;10.80;99.90
22852;DHT22;11592;45.460;9.240;2022-12-05T16:20:23;10.80;99.90
22852;DHT22;11592;45.460;9.240;2022-12-05T16:22:53;10.80;99.90
22852;DHT22;11592;45.460;9.240;2022-12-05T16:25:26;10.80;99.90
22852;DHT22;11592;45.460;9.240;2022-12-05T16:28:01;10.70;99.90
22852;DHT22;11592;45.460;9.240;2022-12-05T16:30:29;10.70;99.90
22852;DHT22;11592;45.460;9.240;2022-12-05T16:33:01;10.50;99.90
22852;DHT22;11592;45.460;9.240;2022-12-05T16:35:43;10.30;99.90
22852;DHT22;11592;45.460;9.240;2022-12-05T16:38:24;10.20;99.90
22852;DHT22;11592;45.460;9.240;2022-12-05T16:40:52;10.10;99.90
22852;DHT22;11592;45.460;9.240;2022-12-05T16:45:55;10.30;99.90
22852;DHT22;11592;45.460;9.240;2022-12-05T16:48:30;10.20;99.90
22852;DHT22;11592;45.460;9.240;2022-12-05T16:53:51;10.20;99.90
22852;DHT22;11592;45.460;9.240;2022-12-05T16:56:30;10.00;99.90
22852;DHT22;11592;45.460;9.240;2022-12-05T16:59:04;9.90;99.90
22852;DHT22;11592;45.460;9.240;2022-12-05T17:01:32;9.80;99.90
22852;DHT22;11592;45.460;9.240;2022-12-05T17:04:04;9.80;99.90
22852;DHT22;11592;45.460;9.240;2022-12-05T17:06:31;9.80;99.90
22852;DHT22;11592;45.460;9.240;2022-12-05T17:08:58;9.80;99.90
22852;DHT22;11592;45.460;9.240;2022-12-05T17:11:28;9.80;99.90
22852;DHT22;11592;45.460;9.240;2022-12-05T17:13:56;9.90;99.90
22852;DHT22;11592;45.460;9.240;2022-12-05T17:16:24;10.00;99.90
22852;DHT22;11592;45.460;9.240;2022-12-05T17:18:52;10.00;99.90
22852;DHT22;11592;45.460;9.240;2022-12-05T17:21:21;10.00;99.90
22852;DHT22;11592;45.460;9.240;2022-12-05T17:23:50;10.10;99.90
22852;DHT22;11592;45.460;9.240;2022-12-05T17:26:19;10.10;99.90
22852;DHT22;11592;45.460;9.240;2022-12-05T17:28:46;10.10;99.90
22852;DHT22;11592;45.460;9.240;2022-12-05T17:31:19;10.20;99.90
22852;DHT22;11592;45.460;9.240;2022-12-05T17:33:47;10.20;99.90
22852;DHT22;11592;45.460;9.240;2022-12-05T17:36:14;10.30;99.90
22852;DHT22;11592;45.460;9.240;2022-12-05T17:38:41;10.30;99.90
22852;DHT22;11592;45.460;9.240;2022-12-05T17:41:17;10.20;99.90
22852;DHT22;11592;45.460;9.240;2022-12-05T17:43:45;10.30;99.90
22852;DHT22;11592;45.460;9.240;2022-12-05T17:46:20;10.20;99.90
22852;DHT22;11592;45.460;9.240;2022-12-05T17:48:49;10.10;99.90
22852;DHT22;11592;45.460;9.240;2022-12-05T17:51:17;10.10;99.90
22852;DHT22;11592;45.460;9.240;2022-12-05T17:53:44;10.10;99.90
22852;DHT22;11592;45.460;9.240;2022-12-05T17:56:12;10.10;99.90
22852;DHT22;11592;45.460;9.240;2022-12-05T17:58:39;10.10;99.90
22852;DHT22;11592;45.460;9.240;2022-12-05T18:01:06;10.10;99.90
22852;DHT22;11592;45.460;9.240;2022-12-05T18:03:35;10.00;99.90
22852;DHT22;11592;45.460;9.240;2022-12-05T18:06:03;9.90;99.90
22852;DHT22;11592;45.460;9.240;2022-12-05T18:08:30;9.90;99.90
22852;DHT22;11592;45.460;9.240;2022-12-05T18:10:57;9.90;99.90
22852;DHT22;11592;45.460;9.240;2022-12-05T18:13:24;9.90;99.90
22852;DHT22;11592;45.460;9.240;2022-12-05T18:15:55;9.90;99.90
22852;DHT22;11592;45.460;9.240;2022-12-05T18:18:22;9.90;99.90
22852;DHT22;11592;45.460;9.240;2022-12-05T18:20:49;9.90;99.90
22852;DHT22;11592;45.460;9.240;2022-12-05T18:23:16;9.90;99.90
22852;DHT22;11592;45.460;9.240;2022-12-05T18:25:43;10.00;99.90
22852;DHT22;11592;45.460;9.240;2022-12-05T18:28:12;9.90;99.90
22852;DHT22;11592;45.460;9.240;2022-12-05T18:30:45;9.90;99.90
22852;DHT22;11592;45.460;9.240;2022-12-05T18:33:11;9.90;99.90
22852;DHT22;11592;45.460;9.240;2022-12-05T18:35:39;9.90;99.90
22852;DHT22;11592;45.460;9.240;2022-12-05T18:38:10;9.90;99.90
22852;DHT22;11592;45.460;9.240;2022-12-05T18:40:37;9.90;99.90
22852;DHT22;11592;45.460;9.240;2022-12-05T18:43:04;9.90;99.90
22852;DHT22;11592;45.460;9.240;2022-12-05T18:45:31;9.90;99.90
22852;DHT22;11592;45.460;9.240;2022-12-05T18:47:58;9.90;99.90
22852;DHT22;11592;45.460;9.240;2022-12-05T18:50:45;9.90;99.90
22852;DHT22;11592;45.460;9.240;2022-12-05T18:53:12;9.90;99.90
22852;DHT22;11592;45.460;9.240;2022-12-05T18:55:39;9.90;99.90
22852;DHT22;11592;45.460;9.240;2022-12-05T18:58:26;9.90;99.90
22852;DHT22;11592;45.460;9.240;2022-12-05T19:00:53;9.90;99.90
22852;DHT22;11592;45.460;9.240;2022-12-05T19:03:20;9.80;99.90
22852;DHT22;11592;45.460;9.240;2022-12-05T19:05:47;9.80;99.90
22852;DHT22;11592;45.460;9.240;2022-12-05T19:08:14;9.80;99.90
22852;DHT22;11592;45.460;9.240;2022-12-05T19:10:41;9.70;99.90
22852;DHT22;11592;45.460;9.240;2022-12-05T19:13:07;9.60;99.90
22852;DHT22;11592;45.460;9.240;2022-12-05T19:15:35;9.60;99.90
22852;DHT22;11592;45.460;9.240;2022-12-05T19:18:01;9.50;99.90
22852;DHT22;11592;45.460;9.240;2022-12-05T19:20:28;9.50;99.90
22852;DHT22;11592;45.460;9.240;2022-12-05T19:22:55;9.50;99.90
22852;DHT22;11592;45.460;9.240;2022-12-05T19:25:28;9.40;99.90
22852;DHT22;11592;45.460;9.240;2022-12-05T19:27:55;9.40;99.90
22852;DHT22;11592;45.460;9.240;2022-12-05T19:30:23;9.30;99.90